KC2DUX Eldora NJ US current weather conditions

sailwx.info

Wind from 257 at 4 knots gusting 8

Air temperature 11.7° C
Dewpoint 11.1° C

Last reported at 2019-Dec-09 17:10 UTC.
Time now 2019-Dec-09 17:42 UTC

Location: N 39°11' W 074°49'.
View on Google Maps.

See reports from other nearby stations

  
Tides and Currents Weather Stations Pressure Air Temp Water Temp Dewpoint Dewpoint Depression Visibility Wind Speed Wind Dir Waves Ship Positions
date/time (UTC)wind fromknots sea level pressurealtimeterstation pressurevisibilityair tempwater tempwave heightnotes
2019-Dec-09 17:10 257 4 gusting 8 11.7
2019-Dec-09 17:05 238 4 gusting 8 11.7
2019-Dec-09 16:55 241 4 gusting 8 11.7
2019-Dec-09 16:50 246 3 gusting 8 11.7
2019-Dec-09 16:40 244 3 gusting 6 11.7
2019-Dec-09 16:35 247 4 gusting 8 11.7
2019-Dec-09 16:30 242 4 gusting 8 11.7
2019-Dec-09 16:25 216 5 gusting 7 11.7
2019-Dec-09 16:20 222 5 gusting 8 11.7
2019-Dec-09 16:15 242 4 gusting 8 11.7
2019-Dec-09 16:10 251 3 gusting 8 11.7
2019-Dec-09 16:05 213 5 gusting 8 11.7
2019-Dec-09 15:55 234 5 gusting 9 11.7
2019-Dec-09 15:50 234 4 gusting 9 11.7
2019-Dec-09 15:45 232 5 gusting 10 11.7
2019-Dec-09 15:40 231 5 gusting 7 11.7
2019-Dec-09 15:35 229 5 gusting 8 11.7
2019-Dec-09 15:30 259 5 gusting 9 11.7
2019-Dec-09 15:25 234 5 gusting 8 11.7
2019-Dec-09 15:20 238 5 gusting 12 11.7
2019-Dec-09 15:11 221 6 gusting 10 11.1
2019-Dec-09 15:06 215 6 gusting 13 11.1
2019-Dec-09 15:02 247 6 gusting 13 11.1
2019-Dec-09 14:56 227 8 gusting 13 11.1
2019-Dec-09 14:50 240 8 gusting 13 11.1
2019-Dec-09 14:48 221 7 gusting 12 11.1
2019-Dec-09 14:40 226 6 gusting 11 10.6
2019-Dec-09 14:36 223 5 gusting 10 10.0
2019-Dec-09 14:31 229 5 gusting 8 10.0
2019-Dec-09 14:26 227 4 gusting 8 10.0
2019-Dec-09 14:21 234 5 gusting 10 10.6
2019-Dec-09 14:17 239 6 gusting 10 10.6
2019-Dec-09 14:10 236 6 gusting 11 11.1
2019-Dec-09 14:05 227 6 gusting 13 12.2
2019-Dec-09 14:03 237 6 gusting 15 13.3
2019-Dec-09 13:56 232 10 gusting 19 13.9
2019-Dec-09 13:50 239 10 gusting 19 13.9
2019-Dec-09 13:46 217 10 gusting 19 13.9
2019-Dec-09 13:40 220 9 gusting 19 13.3
2019-Dec-09 13:35 215 10 gusting 18 13.3
2019-Dec-09 13:32 220 10 gusting 18 13.3
2019-Dec-09 13:25 241 8 gusting 18 13.3
2019-Dec-09 13:21 221 10 gusting 19 13.3
2019-Dec-09 13:17 229 6 gusting 19 13.3
2019-Dec-09 13:10 224 6 gusting 19 13.3
2019-Dec-09 13:06 215 9 gusting 19 13.3
2019-Dec-09 13:01 217 7 gusting 13 13.3
2019-Dec-09 12:55 226 8 gusting 17 13.3
2019-Dec-09 12:50 213 6 gusting 16 13.3
2019-Dec-09 12:46 215 6 gusting 17 13.3
2019-Dec-09 12:40 211 7 gusting 19 13.3
2019-Dec-09 12:35 223 7 gusting 19 13.3
2019-Dec-09 12:32 223 5 gusting 14 12.8
2019-Dec-09 12:25 239 3 gusting 7 12.2
2019-Dec-09 12:20 186 1 gusting 5 12.2
2019-Dec-09 12:16 205 0 gusting 2 12.2
2019-Dec-09 12:11 204 0 gusting 3 12.2
2019-Dec-09 12:05 213 0 gusting 5 12.2
2019-Dec-09 12:02 225 2 gusting 5 12.2
2019-Dec-09 11:55 217 1 gusting 7 12.2
2019-Dec-09 11:50 223 2 gusting 7 12.2
2019-Dec-09 11:46 226 2 gusting 6 11.7
2019-Dec-09 11:40 229 3 gusting 10 11.7
2019-Dec-09 11:35 223 5 gusting 10 11.7
2019-Dec-09 11:31 224 6 gusting 10 11.7
2019-Dec-09 11:25 221 2 gusting 5 11.7
2019-Dec-09 11:20 229 2 gusting 4 11.7
2019-Dec-09 11:17 177 1 gusting 4 11.7
2019-Dec-09 11:10 188 1 gusting 4 11.1
2019-Dec-09 11:05 188 0 gusting 3 11.1
2019-Dec-09 11:00 181 0 gusting 3 10.6
2019-Dec-09 10:55 128 0 gusting 3 10.6
2019-Dec-09 10:50 128 10.0
2019-Dec-09 10:46 077 9.4
2019-Dec-09 10:40 075 0 gusting 3 9.4
2019-Dec-09 10:35 076 0 gusting 3 8.9
2019-Dec-09 10:31 084 0 gusting 6 8.9
2019-Dec-09 10:25 084 1 gusting 6 8.9
2019-Dec-09 10:20 101 0 gusting 2 8.3
2019-Dec-09 10:15 101 8.3
2019-Dec-09 10:10 101 0 gusting 3 8.3
2019-Dec-09 10:05 105 0 gusting 3 8.3
2019-Dec-09 10:00 115 0 gusting 3 8.3
2019-Dec-09 09:55 115 0 gusting 3 7.8
2019-Dec-09 09:50 116 7.8
2019-Dec-09 09:45 116 0 gusting 1 7.8
2019-Dec-09 09:40 116 7.8
2019-Dec-09 09:30 116 7.8
2019-Dec-09 09:25 116 0 gusting 2 7.8
2019-Dec-09 09:20 116 0 gusting 3 7.8
2019-Dec-09 09:15 117 0 gusting 3 7.8
2019-Dec-09 09:10 119 1 gusting 3 7.8
2019-Dec-09 09:05 135 0 gusting 2 7.2
2019-Dec-09 09:00 136 0 gusting 2 7.2
2019-Dec-09 08:55 163 0 gusting 2 7.2
2019-Dec-09 08:50 179 0 gusting 1 7.2
2019-Dec-09 08:45 182 7.2
2019-Dec-09 08:40 182 7.2
2019-Dec-09 08:35 182 0 gusting 1 7.2
2019-Dec-09 08:26 182 6.7
2019-Dec-09 08:20 182 6.7
2019-Dec-09 08:17 182 6.7
2019-Dec-09 08:11 182 6.7
2019-Dec-09 08:06 182 6.7
2019-Dec-09 08:01 184 6.7
2019-Dec-09 07:55 184 0 gusting 1 6.7
2019-Dec-09 07:50 184 6.7
2019-Dec-09 07:46 184 6.1
2019-Dec-09 07:40 184 6.1
2019-Dec-09 07:35 184 6.1
2019-Dec-09 07:32 184 6.1
2019-Dec-09 07:25 184 6.1
2019-Dec-09 07:20 184 6.1
2019-Dec-09 07:17 184 6.1
2019-Dec-09 07:10 184 6.1
2019-Dec-09 07:05 184 5.6
2019-Dec-09 07:01 184 5.6
2019-Dec-09 06:55 184 5.6
2019-Dec-09 06:50 184 5.6
2019-Dec-09 06:46 184 5.6
2019-Dec-09 06:40 184 5.6
2019-Dec-09 06:35 184 5.6
2019-Dec-09 06:31 184 5.6
2019-Dec-09 06:25 184 5.6
2019-Dec-09 06:20 184 5.6
2019-Dec-09 06:16 184 5.6
2019-Dec-09 06:10 184 5.6
2019-Dec-09 06:05 184 5.6
2019-Dec-09 06:01 184 5.6
2019-Dec-09 05:55 184 5.6
2019-Dec-09 05:50 184 5.6
2019-Dec-09 05:46 184 5.0
2019-Dec-09 05:40 184 5.0
2019-Dec-09 05:35 184 5.0
2019-Dec-09 05:30 184 5.0
2019-Dec-09 05:25 184 5.0
2019-Dec-09 05:20 184 5.0
2019-Dec-09 05:16 184 5.0
2019-Dec-09 05:10 184 5.0
2019-Dec-09 05:05 184 5.0
2019-Dec-09 05:00 184 5.0
2019-Dec-09 04:55 184 4.4
2019-Dec-09 04:50 184 4.4
2019-Dec-09 04:45 184 4.4
2019-Dec-09 04:40 184 4.4
2019-Dec-09 04:35 184 4.4
2019-Dec-09 04:30 184 4.4
2019-Dec-09 04:25 184 4.4
2019-Dec-09 04:20 184 4.4
2019-Dec-09 04:15 184 4.4
2019-Dec-09 04:10 184 4.4
2019-Dec-09 04:05 184 3.9
2019-Dec-09 04:00 184 3.9
2019-Dec-09 03:55 184 3.9
2019-Dec-09 03:50 184 3.9
2019-Dec-09 03:45 184 3.9
2019-Dec-09 03:40 184 3.9
2019-Dec-09 03:35 184 3.9
2019-Dec-09 03:30 184 3.9
2019-Dec-09 03:25 184 3.3
2019-Dec-09 03:20 184 3.3
2019-Dec-09 03:10 184 3.3
2019-Dec-09 03:05 184 3.3
2019-Dec-09 02:55 184 2.8
2019-Dec-09 02:50 184 2.8
2019-Dec-09 02:40 184 2.8
2019-Dec-09 02:35 184 2.8
2019-Dec-09 02:30 184 2.2
2019-Dec-09 02:25 184 2.2
2019-Dec-09 02:20 184 2.2
2019-Dec-09 02:15 184 2.2
2019-Dec-09 02:10 184 2.2
2019-Dec-09 02:05 184 1.7
2019-Dec-09 01:55 184 1.1
2019-Dec-09 01:50 184 1.1
2019-Dec-09 01:40 184 0.6
2019-Dec-09 01:35 184 0.6
2019-Dec-09 01:30 184 0.6
2019-Dec-09 01:25 184 0.6
2019-Dec-09 01:20 184 0.6
2019-Dec-09 01:10 184 -0.0
2019-Dec-09 01:05 184 -0.0
2019-Dec-09 00:55 184 0.6
2019-Dec-09 00:50 184 0.6
2019-Dec-09 00:45 184 0.6
2019-Dec-09 00:40 184 0.6
2019-Dec-09 00:31 184 0.6
2019-Dec-09 00:26 184 0.6
2019-Dec-09 00:20 184 0.6
2019-Dec-09 00:17 184 0.6
2019-Dec-09 00:10 184 1.1
2019-Dec-09 00:06 184 1.1
2019-Dec-09 00:02 184 1.1
2019-Dec-08 23:55 184 1.1
2019-Dec-08 23:51 184 1.1
2019-Dec-08 23:47 184 1.1
2019-Dec-08 23:41 184 1.1
2019-Dec-08 23:36 184 1.7
2019-Dec-08 23:33 184 1.7
2019-Dec-08 23:25 184 1.7
2019-Dec-08 23:20 184 1.7
2019-Dec-08 23:17 184 1.7
2019-Dec-08 23:10 184 1.7
2019-Dec-08 23:05 184 2.2
2019-Dec-08 23:01 184 2.2
2019-Dec-08 22:55 184 2.2
2019-Dec-08 22:50 184 2.2
2019-Dec-08 22:46 184 2.8
2019-Dec-08 22:40 184 2.8
2019-Dec-08 22:35 184 2.8
2019-Dec-08 22:31 184 2.8
2019-Dec-08 22:25 184 3.3
2019-Dec-08 22:20 184 3.3
2019-Dec-08 22:16 184 3.3
2019-Dec-08 22:10 184 3.9
2019-Dec-08 22:05 184 3.9
2019-Dec-08 22:02 184 3.9
2019-Dec-08 21:55 184 4.4
2019-Dec-08 21:50 184 5.0
2019-Dec-08 21:47 184 5.0
2019-Dec-08 21:40 184 5.6
2019-Dec-08 21:35 184 5.6
2019-Dec-08 21:32 184 6.1
2019-Dec-08 21:25 184 6.1
2019-Dec-08 21:20 184 6.7
2019-Dec-08 21:16 184 6.7
2019-Dec-08 21:10 184 6.7
2019-Dec-08 21:05 184 6.7
2019-Dec-08 21:01 184 7.2
2019-Dec-08 20:55 184 7.2
2019-Dec-08 20:50 184 7.2
2019-Dec-08 20:46 184 7.2
2019-Dec-08 20:40 184 7.2
2019-Dec-08 20:35 183 0 gusting 3 7.2
2019-Dec-08 20:31 185 0 gusting 4 7.2
2019-Dec-08 20:25 201 0 gusting 4 7.8
2019-Dec-08 20:20 177 0 gusting 3 7.8
2019-Dec-08 20:16 188 0 gusting 4 7.8
2019-Dec-08 20:10 179 0 gusting 5 7.8
2019-Dec-08 20:05 201 0 gusting 5 7.8
2019-Dec-08 20:01 213 0 gusting 5 7.8
2019-Dec-08 19:55 225 1 gusting 5 7.8
2019-Dec-08 19:50 175 0 gusting 9 7.8
2019-Dec-08 19:46 227 6 gusting 9 7.8
2019-Dec-08 19:40 219 2 gusting 7 8.3
2019-Dec-08 19:35 197 0 gusting 6 8.3
2019-Dec-08 19:30 142 1 gusting 4 8.3
2019-Dec-08 19:25 182 0 gusting 8 8.3
2019-Dec-08 19:20 208 2 gusting 8 8.3
2019-Dec-08 19:16 195 0 gusting 6 8.9
2019-Dec-08 19:10 190 2 gusting 6 8.9
2019-Dec-08 19:05 170 0 gusting 6 8.3
2019-Dec-08 19:00 211 1 gusting 6 8.3
2019-Dec-08 18:55 089 2 gusting 5 8.9
2019-Dec-08 18:50 214 0 gusting 6 8.3
2019-Dec-08 18:46 222 3 gusting 8 8.3
2019-Dec-08 18:40 215 2 gusting 10 8.3
2019-Dec-08 18:35 198 1 gusting 10 7.8
2019-Dec-08 18:31 227 3 gusting 10 7.8
2019-Dec-08 18:25 213 3 gusting 7 8.3
2019-Dec-08 18:20 229 1 gusting 6 8.3
2019-Dec-08 18:16 161 1 gusting 6 8.3
2019-Dec-08 18:10 131 2 gusting 6 8.3
2019-Dec-08 18:05 229 2 gusting 7 8.3
2019-Dec-08 18:00 227 3 gusting 7 8.3
2019-Dec-08 17:55 186 2 gusting 6 7.8
2019-Dec-08 17:50 180 1 gusting 6 7.8
2019-Dec-08 17:46 211 1 gusting 6 7.8
2019-Dec-08 17:40 200 1 gusting 10 7.2
2019-Dec-08 17:35 161 2 gusting 10 7.2
2019-Dec-08 17:30 142 3 gusting 11 7.2
2019-Dec-08 17:25 106 3 gusting 9 7.2
2019-Dec-08 17:20 125 4 gusting 7 7.2
2019-Dec-08 17:15 137 3 gusting 9 6.7
2019-Dec-08 17:10 111 4 gusting 9 7.2
2019-Dec-08 17:05 226 3 gusting 7 7.2
2019-Dec-08 17:00 154 1 gusting 6 7.2
2019-Dec-08 16:55 132 1 gusting 8 6.7
2019-Dec-08 16:50 126 3 gusting 8 6.7
2019-Dec-08 16:45 130 4 gusting 7 6.7
2019-Dec-08 16:40 173 1 gusting 6 6.7
2019-Dec-08 16:35 208 2 gusting 7 6.7
2019-Dec-08 16:30 167 1 gusting 7 6.7
2019-Dec-08 16:25 153 2 gusting 4 6.7
2019-Dec-08 16:20 101 6.1
2019-Dec-08 16:15 071 3 gusting 9 6.1
2019-Dec-08 16:10 131 2 gusting 9 6.1
2019-Dec-08 16:05 097 3 gusting 10 6.1
2019-Dec-08 16:00 092 4 gusting 10 6.1
2019-Dec-08 15:55 101 3 gusting 7 6.1
2019-Dec-08 15:50 162 0 gusting 6 6.1
2019-Dec-08 15:45 188 1 gusting 8 6.1
2019-Dec-08 15:40 081 2 gusting 7 6.1
2019-Dec-08 15:33 076 4 gusting 7 5.6
2019-Dec-08 15:26 126 2 gusting 6 5.0
2019-Dec-08 15:20 079 2 gusting 6 5.0
2019-Dec-08 15:16 090 3 gusting 6 5.0
2019-Dec-08 15:11 085 1 gusting 6 5.0
2019-Dec-08 15:05 100 2 gusting 6 4.4
2019-Dec-08 15:01 085 1 gusting 4 4.4
2019-Dec-08 14:55 076 1 gusting 6 3.9
2019-Dec-08 14:50 105 2 gusting 6 3.9
2019-Dec-08 14:47 077 1 gusting 6 3.9
2019-Dec-08 14:40 080 2 gusting 6 3.3
2019-Dec-08 14:35 083 1 gusting 5 2.8
2019-Dec-08 14:30 070 2 gusting 5 2.8
2019-Dec-08 14:25 082 1 gusting 5 2.2
2019-Dec-08 14:20 051 0 gusting 3 2.2
2019-Dec-08 14:16 051 0 gusting 4 1.7
2019-Dec-08 14:10 052 0 gusting 4 1.1
2019-Dec-08 14:05 057 1 gusting 4 0.6
2019-Dec-08 14:00 053 1 gusting 4 0.6
2019-Dec-08 13:55 049 2 gusting 4 -0.0
2019-Dec-08 13:50 052 2 gusting 3 -0.6
2019-Dec-08 13:45 049 1 gusting 3 -0.6
2019-Dec-08 13:40 054 1 gusting 4 -1.1
2019-Dec-08 13:35 051 1 gusting 4 -1.7
2019-Dec-08 13:30 031 0 gusting 4 -2.2
2019-Dec-08 13:25 005 0 gusting 2 -2.2
2019-Dec-08 13:20 005 -2.8
2019-Dec-08 13:15 005 0 gusting 1 -3.3
2019-Dec-08 13:10 005 -3.9
2019-Dec-08 13:05 005 0 gusting 2 -3.9
2019-Dec-08 13:01 005 -4.4
2019-Dec-08 12:55 005 -5.0
2019-Dec-08 12:50 005 0 gusting 3 -5.6
2019-Dec-08 12:45 347 -5.6
2019-Dec-08 12:40 347 -5.6
2019-Dec-08 12:35 347 -5.6
2019-Dec-08 12:30 347 -6.1
2019-Dec-08 12:25 347 -6.1
2019-Dec-08 12:20 347 -6.1
2019-Dec-08 12:16 347 -6.1
2019-Dec-08 12:10 347 -6.1
2019-Dec-08 12:05 347 -5.6
2019-Dec-08 12:00 347 -5.6
2019-Dec-08 11:55 347 -5.6
2019-Dec-08 11:50 347 -6.1
2019-Dec-08 11:45 347 -6.1
2019-Dec-08 11:40 347 -6.1
2019-Dec-08 11:35 347 -6.1
2019-Dec-08 11:30 347 -6.1
2019-Dec-08 11:25 347 -5.6
2019-Dec-08 11:20 347 -5.6
2019-Dec-08 11:10 347 -5.6
2019-Dec-08 11:05 347 -5.6
2019-Dec-08 11:00 347 -5.6
2019-Dec-08 10:55 347 -5.6
2019-Dec-08 10:50 347 -5.6
2019-Dec-08 10:40 347 -5.6
2019-Dec-08 10:35 347 -5.6
2019-Dec-08 10:25 347 -5.0
2019-Dec-08 10:20 347 -5.0
2019-Dec-08 10:15 347 -5.0
2019-Dec-08 10:10 347 -5.0
2019-Dec-08 10:05 347 -5.0
2019-Dec-08 09:55 347 -5.0
2019-Dec-08 09:50 347 -4.4
2019-Dec-08 09:45 347 -4.4
2019-Dec-08 09:40 347 -5.0
2019-Dec-08 09:35 347 -5.0
2019-Dec-08 09:25 347 -5.0
2019-Dec-08 09:20 347 -5.0
2019-Dec-08 09:15 347 -5.0
2019-Dec-08 09:10 347 -5.0
2019-Dec-08 09:05 347 -5.0
2019-Dec-08 09:00 347 -5.0
2019-Dec-08 08:55 347 -5.0
2019-Dec-08 08:50 347 -5.0
2019-Dec-08 08:45 347 -5.0
2019-Dec-08 08:36 347 -5.0
2019-Dec-08 08:32 347 -5.0
2019-Dec-08 08:26 347 -5.6
2019-Dec-08 08:21 347 -5.6
2019-Dec-08 08:17 347 -5.6
2019-Dec-08 08:10 347 -5.6
2019-Dec-08 08:05 347 -5.6
2019-Dec-08 08:02 347 -5.6
2019-Dec-08 07:56 347 -5.6
2019-Dec-08 07:50 347 -5.6
2019-Dec-08 07:48 347 -5.6
2019-Dec-08 07:40 347 -5.6
2019-Dec-08 07:35 347 -5.6
2019-Dec-08 07:31 347 -5.6
2019-Dec-08 07:26 347 -5.6
2019-Dec-08 07:20 347 -5.6
2019-Dec-08 07:16 347 -5.0
2019-Dec-08 07:11 347 -5.0
2019-Dec-08 07:06 347 -5.0
2019-Dec-08 07:02 347 -5.0
2019-Dec-08 06:56 347 -5.0
2019-Dec-08 06:50 347 -5.0
2019-Dec-08 06:46 347 -5.0
2019-Dec-08 06:40 347 -5.0
2019-Dec-08 06:36 347 -5.0
2019-Dec-08 06:32 347 -5.0
2019-Dec-08 06:25 347 -5.0
2019-Dec-08 06:20 347 -5.0
2019-Dec-08 06:17 347 -4.4
2019-Dec-08 06:10 347 -4.4
2019-Dec-08 06:05 347 -4.4
2019-Dec-08 06:01 347 -4.4
2019-Dec-08 05:55 347 -4.4
2019-Dec-08 05:50 347 -4.4
2019-Dec-08 05:46 347 -4.4
2019-Dec-08 05:40 347 -3.9
2019-Dec-08 05:35 347 -3.9
2019-Dec-08 05:30 347 -3.9
2019-Dec-08 05:26 347 -3.9
2019-Dec-08 05:20 347 -3.9
2019-Dec-08 05:16 347 -3.9
2019-Dec-08 05:10 347 -3.9
2019-Dec-08 05:05 347 -3.9
2019-Dec-08 05:01 347 -4.4
2019-Dec-08 04:55 347 -4.4
2019-Dec-08 04:50 346 -4.4
2019-Dec-08 04:46 346 -3.9
2019-Dec-08 04:40 346 -3.9
2019-Dec-08 04:35 346 -3.9
2019-Dec-08 04:30 346 -3.9
2019-Dec-08 04:25 346 -3.9
2019-Dec-08 04:20 346 -3.9
2019-Dec-08 04:16 346 -3.9
2019-Dec-08 04:10 346 -4.4
2019-Dec-08 04:05 346 -4.4
2019-Dec-08 04:01 346 -4.4
2019-Dec-08 03:55 346 -4.4
2019-Dec-08 03:50 346 -4.4
2019-Dec-08 03:46 346 -4.4
2019-Dec-08 03:40 346 -4.4
2019-Dec-08 03:35 346 -4.4
2019-Dec-08 03:30 346 -3.9
2019-Dec-08 03:25 346 -3.9
2019-Dec-08 03:20 346 -3.9
2019-Dec-08 03:16 346 -3.9
2019-Dec-08 03:10 346 -3.9
2019-Dec-08 03:05 346 -3.9
2019-Dec-08 03:00 346 -3.9
2019-Dec-08 02:55 346 -3.9
2019-Dec-08 02:50 346 -3.9
2019-Dec-08 02:45 346 -3.9
2019-Dec-08 02:40 346 -3.3
2019-Dec-08 02:35 346 -3.3
2019-Dec-08 02:30 346 -3.3
2019-Dec-08 02:25 346 -3.3
2019-Dec-08 02:20 346 -3.3
2019-Dec-08 02:15 346 -3.3
2019-Dec-08 02:10 346 -3.3
2019-Dec-08 02:05 346 -3.3
2019-Dec-08 02:00 346 -3.3
2019-Dec-08 01:55 346 -3.3
2019-Dec-08 01:50 346 -3.3
2019-Dec-08 01:45 346 -3.3
2019-Dec-08 01:40 346 -2.8
2019-Dec-08 01:35 346 -2.8
2019-Dec-08 01:31 346 -2.8
2019-Dec-08 01:25 346 -2.8
2019-Dec-08 01:20 346 -2.8
2019-Dec-08 01:15 346 -2.8
2019-Dec-08 01:10 346 -2.8
2019-Dec-08 01:05 346 -2.8
2019-Dec-08 00:55 346 -2.2
2019-Dec-08 00:50 346 -2.2
2019-Dec-08 00:40 346 -2.2
2019-Dec-08 00:35 346 -2.2
2019-Dec-08 00:25 346 -1.7
2019-Dec-08 00:20 346 -1.7
2019-Dec-08 00:10 346 -1.7
2019-Dec-08 00:05 346 -1.7
2019-Dec-08 00:00 346 -1.1
2019-Dec-07 23:55 346 -1.1
2019-Dec-07 23:50 346 -1.1
2019-Dec-07 23:45 346 -1.1
2019-Dec-07 23:40 346 -1.1
2019-Dec-07 23:35 346 -0.6
2019-Dec-07 23:30 346 -0.6
2019-Dec-07 23:25 346 -0.6
2019-Dec-07 23:16 346 -0.0
2019-Dec-07 23:11 346 -0.0
2019-Dec-07 23:06 346 -0.0
2019-Dec-07 23:02 346 0.6
2019-Dec-07 22:55 346 0.6
2019-Dec-07 22:50 346 0.6
2019-Dec-07 22:47 346 1.1
2019-Dec-07 22:41 346 1.1
2019-Dec-07 22:35 346 1.7
2019-Dec-07 22:31 346 1.7
2019-Dec-07 22:25 346 1.7
2019-Dec-07 22:21 346 2.2
2019-Dec-07 22:16 346 2.2
2019-Dec-07 22:10 346 2.8
2019-Dec-07 22:05 346 2.8
2019-Dec-07 22:02 346 2.8
2019-Dec-07 21:55 346 3.3
2019-Dec-07 21:50 346 0 gusting 2 3.3
2019-Dec-07 21:46 346 3.3
2019-Dec-07 21:40 346 3.9
2019-Dec-07 21:35 346 3.9
2019-Dec-07 21:32 344 3.9
2019-Dec-07 21:25 350 0 gusting 4 4.4
2019-Dec-07 21:20 014 0 gusting 7 4.4
2019-Dec-07 21:16 024 2 gusting 7 4.4
2019-Dec-07 21:10 333 0 gusting 6 4.4
2019-Dec-07 21:05 349 2 gusting 6 5.0
2019-Dec-07 21:01 325 0 gusting 3 5.0
2019-Dec-07 20:55 311 5.0
2019-Dec-07 20:50 306 1 gusting 7 5.0
2019-Dec-07 20:46 312 3 gusting 7 5.0
2019-Dec-07 20:40 056 2 gusting 5 5.0
2019-Dec-07 20:35 020 1 gusting 4 5.6
2019-Dec-07 20:32 320 0 gusting 8 5.6
2019-Dec-07 20:25 288 3 gusting 8 5.6
2019-Dec-07 20:20 296 0 gusting 5 5.6
2019-Dec-07 20:16 294 1 gusting 5 5.6
2019-Dec-07 20:10 331 2 gusting 6 5.6
2019-Dec-07 20:05 340 3 gusting 6 5.6
2019-Dec-07 20:01 360 1 gusting 6 5.6
2019-Dec-07 19:55 360 1 gusting 6 5.6
2019-Dec-07 19:50 015 0 gusting 8 5.6
2019-Dec-07 19:46 024 1 gusting 7 5.6
2019-Dec-07 19:40 345 3 gusting 6 5.6
2019-Dec-07 19:35 331 1 gusting 11 5.6
2019-Dec-07 19:32 304 3 gusting 11 5.6
2019-Dec-07 19:25 323 1 gusting 9 6.1
2019-Dec-07 19:20 009 1 gusting 7 6.1
2019-Dec-07 19:16 317 2 gusting 7 6.1
2019-Dec-07 19:10 281 2 gusting 7 6.1
2019-Dec-07 19:05 336 1 gusting 8 6.1
2019-Dec-07 19:01 316 1 gusting 8 6.1
2019-Dec-07 18:55 049 2 gusting 10 5.6
2019-Dec-07 18:50 306 3 gusting 10 5.6
2019-Dec-07 18:46 294 1 gusting 7 5.6
2019-Dec-07 18:40 308 3 gusting 11 5.6
2019-Dec-07 18:35 282 5 gusting 11 5.6
2019-Dec-07 18:31 298 3 gusting 8 5.0
2019-Dec-07 18:25 336 3 gusting 8 5.0
2019-Dec-07 18:20 023 2 gusting 8 5.0
2019-Dec-07 18:16 317 3 gusting 7 5.6
2019-Dec-07 18:10 346 1 gusting 8 5.6
2019-Dec-07 18:05 335 0 gusting 9 5.0
2019-Dec-07 18:00 018 3 gusting 9 5.0
2019-Dec-07 17:55 022 1 gusting 6 5.0
2019-Dec-07 17:50 355 2 gusting 5 5.0
2019-Dec-07 17:46 279 0 gusting 6 5.0
2019-Dec-07 17:40 308 1 gusting 4 5.0
2019-Dec-07 17:35 304 1 gusting 6 5.0
2019-Dec-07 17:31 287 2 gusting 6 5.0
2019-Dec-07 17:25 311 2 gusting 6 5.0
2019-Dec-07 17:20 281 0 gusting 9 5.0
2019-Dec-07 17:16 275 2 gusting 9 5.0
2019-Dec-07 17:10 273 2 gusting 9 5.0
2019-Dec-07 17:05 302 1 gusting 7 5.0
2019-Dec-07 17:01 317 2 gusting 5 5.0